Cope, SC (29038)

5:11 AM EDT on June 25, 2017 (GMT -0400)
Edisto Electric HQ | | Change Station

Elev 151 ft 33.29 °N, 81.04 °W | Updated 10 seconds ago

Rain
Rain
74.2 °F
Feels Like 74 °F
N
0.0
Wind Variable Wind from WNW
Gusts 3.0 mph

Today
High -- | Low -- °F
--% Chance of Precip.
Yesterday
High -- | Low -- °F
Precip. -- in
Pressure 30.04 in
Visibility 9.0 miles
Clouds Few 300 ft
Heat Index 74 °F
Dew Point 69 °F
Humidity 85%
Rainfall 0.00 in
Snow Depth Not available.
6:16 AM 8:37 PM
New Moon, 2% visible
METAR KOGB 250853Z AUTO 21005KT 9SM FEW003 23/23 A3004 RMK AO2 SLP170 T02330228 58001
Pressure 30.04 in
Visibility 9.0 miles
Clouds Few 300 ft
Heat Index 74 °F
Dew Point 69 °F
Humidity 85%
Rainfall 0.00 in
Snow Depth Not available.
6:16 AM 8:37 PM
New Moon, 2% visible
METAR KOGB 250853Z AUTO 21005KT 9SM FEW003 23/23 A3004 RMK AO2 SLP170 T02330228 58001

Get Severe Weather Alerts

Thanks for signing up!

Be on the lookout for a verification email in your inbox.

You'll start receiving the daily forecast at 6 AM.

×

10-Day Weather Forecast

Almanac

Astronomy

Jun. 25, 2017 Rise Set
Actual Time
Civil Twilight
Nautical Twilight
Astronomical Twilight
Moon
Length of Visible Light
Length of Day
Tomorrow will be .
, % of the Moon is Illuminated

Today's Extremes

State Highs State Lows

Community

WunderPhotos

Category 6

Welcome to Category 6. This is the collective home for Weather Underground's featured writeups by Dr. Jeff Masters (right), Bob Henson (left), Chris Burt, and other regular contributors.

Nearby

Air Quality

  Air Quality AQ Index Pollutant
Not available.

Snow Depth

Station Depth Elevation

Earthquake Activity

City Distance Mag. Time & Date
Minimum magnitude displayed is 2.5.

Coastal Water Temperatures

Place Temperature

Stations

Nearby Weather Stations

Station Location Temp. Windchill Dew Point Humidity Wind Precip. Elev Updated Type
                   

Watches & Warnings

There are currently no watches in effect.